Terminal Aerodrome Forecast
Issued by NWS

Home | Current Version | Previous Version | Graphics & Text | Print | Product List | Glossary On
Versions: 1 2 3 4 5 6 7 8 9 10 11 12 13 14 15 16 17 18 19 20 21 22 23 24 25 26
000
FTUS43 KICT 180534
TAFHUT
TAF
KHUT 180534Z 1806/1906 10008KT 2SM -SN BR SCT007 BKN015
     FM180900 12008KT 1SM -FZDZSN BR SCT004 OVC009
     FM181200 03007KT 1/2SM FG BKN007
     FM181800 02007KT 4SM BR SCT007 BKN015
     FM182100 02005KT 5SM BR BKN015=

USA.gov is the U.S. government's official web portal to all federal, state and local government web resources and services.